Time;durP1;ratioP1;P1;durP2;ratioP2;P2;SDS_P1;SDS_P2;PMS_P1;PMS_P2;Temp;Humidity;BMP_temperature;BMP_pressure;BME280_temperature;BME280_humidity;BME280_pressure;Samples;Min_cycle;Max_cycle;Signal;HPM_P1;HPM_P2
2023/12/15 00:02:22;;;;;;;0.80;0.80;;;;;;;9.17;94.46;99213.25;5071512;28;20219;-72
2023/12/15 00:04:50;;;;;;;6.90;0.90;;;;;;;9.19;94.72;99211.25;5071275;28;20200;-72
2023/12/15 00:07:17;;;;;;;0.60;0.60;;;;;;;9.11;94.79;99214.03;5072444;28;20219;-72
2023/12/15 00:09:44;;;;;;;0.80;0.80;;;;;;;9.17;94.35;99223.84;5072405;28;20184;-72
2023/12/15 00:12:11;;;;;;;0.70;0.70;;;;;;;9.14;94.63;99232.16;5071575;28;20200;-71
2023/12/15 00:14:37;;;;;;;9.30;1.07;;;;;;;9.20;93.93;99237.50;5071138;28;20253;-72
2023/12/15 00:17:04;;;;;;;0.80;0.80;;;;;;;9.11;94.16;99241.31;5071826;28;20196;-72
2023/12/15 00:19:31;;;;;;;0.77;0.77;;;;;;;9.18;93.93;99236.06;5071518;28;20269;-73
2023/12/15 00:21:59;;;;;;;0.60;0.60;;;;;;;9.24;93.39;99246.72;5071355;28;20196;-73
2023/12/15 00:24:26;;;;;;;0.73;0.73;;;;;;;9.12;93.93;99250.94;5070839;28;20276;-73
2023/12/15 00:26:53;;;;;;;0.70;0.70;;;;;;;9.14;93.61;99263.97;5071290;28;20619;-74
2023/12/15 00:29:19;;;;;;;1.23;0.80;;;;;;;9.16;93.32;99260.16;5071472;28;20291;-72
2023/12/15 00:31:47;;;;;;;0.70;0.70;;;;;;;9.15;93.13;99253.19;5071482;28;20266;-73
2023/12/15 00:34:13;;;;;;;1.00;0.93;;;;;;;9.20;93.18;99255.25;5070757;28;20199;-72
2023/12/15 00:36:40;;;;;;;0.80;0.80;;;;;;;9.21;92.63;99267.50;5062409;28;20263;-73
2023/12/15 00:39:08;;;;;;;0.77;0.77;;;;;;;9.21;92.81;99267.50;5050685;28;20268;-73
2023/12/15 00:41:35;;;;;;;0.77;0.77;;;;;;;9.15;92.65;99268.28;5050728;28;20196;-72
2023/12/15 00:44:04;;;;;;;1.03;1.03;;;;;;;9.17;92.87;99274.19;5051100;28;20773;-71
2023/12/15 00:46:30;;;;;;;1.40;0.80;;;;;;;9.19;92.15;99280.13;5050767;28;20623;-71
2023/12/15 00:48:58;;;;;;;0.80;0.80;;;;;;;9.17;91.96;99276.84;5050182;28;20680;-71
2023/12/15 00:51:24;;;;;;;1.23;0.83;;;;;;;9.19;91.78;99285.44;5051059;28;20196;-74
2023/12/15 00:53:51;;;;;;;0.90;0.90;;;;;;;9.23;91.57;99286.69;5050899;28;20253;-71
2023/12/15 00:56:19;;;;;;;0.70;0.70;;;;;;;9.20;91.72;99298.47;5051115;28;20219;-70
2023/12/15 00:58:46;;;;;;;0.80;0.80;;;;;;;9.24;91.62;99289.13;5051285;28;20196;-71
2023/12/15 01:01:13;;;;;;;1.90;0.80;;;;;;;9.25;91.22;99285.47;5063027;28;20204;-72
2023/12/15 01:03:40;;;;;;;0.90;0.90;;;;;;;9.19;91.87;99285.44;5071037;28;20216;-73
2023/12/15 01:06:07;;;;;;;0.90;0.90;;;;;;;9.18;91.78;99284.59;5070682;28;20253;-72
2023/12/15 01:08:33;;;;;;;0.80;0.80;;;;;;;9.19;91.76;99301.31;5070874;28;20199;-73
2023/12/15 01:11:00;;;;;;;1.03;0.80;;;;;;;9.16;91.45;99302.53;5070517;28;20261;-73
2023/12/15 01:13:28;;;;;;;0.70;0.70;;;;;;;9.05;91.19;99279.19;5070419;28;20560;-72
2023/12/15 01:15:55;;;;;;;0.73;0.73;;;;;;;9.21;91.17;99312.53;5070478;28;20655;-72
2023/12/15 01:18:22;;;;;;;0.60;0.60;;;;;;;9.26;91.54;99318.06;5070728;28;20205;-71
2023/12/15 01:20:48;;;;;;;1.33;0.63;;;;;;;9.28;90.81;99316.06;5070513;28;20195;-71
2023/12/15 01:23:15;;;;;;;0.67;0.67;;;;;;;9.32;90.77;99327.94;5070508;28;20223;-72
2023/12/15 01:25:42;;;;;;;0.70;0.70;;;;;;;9.20;91.41;99329.47;5070519;28;20250;-72
2023/12/15 01:28:09;;;;;;;0.87;0.87;;;;;;;9.16;91.68;99329.03;5070326;28;20252;-71
2023/12/15 01:30:37;;;;;;;0.80;0.80;;;;;;;9.20;92.24;99329.47;5070379;28;20219;-73
2023/12/15 01:33:03;;;;;;;0.63;0.63;;;;;;;9.17;92.23;99332.47;5070287;28;20203;-73
2023/12/15 01:35:30;;;;;;;0.73;0.73;;;;;;;9.22;91.89;99332.72;5071805;28;20249;-72
2023/12/15 01:37:57;;;;;;;9.03;1.40;;;;;;;9.13;92.65;99334.72;5074167;28;20191;-71
2023/12/15 01:40:23;;;;;;;0.60;0.60;;;;;;;9.10;92.63;99335.06;5074517;28;20257;-72
2023/12/15 01:42:50;;;;;;;1.20;0.67;;;;;;;8.98;92.72;99330.47;5074079;28;20289;-72
2023/12/15 01:45:17;;;;;;;0.70;0.70;;;;;;;9.06;92.71;99333.00;5074227;28;20192;-73
2023/12/15 01:47:45;;;;;;;0.80;0.80;;;;;;;9.12;93.13;99351.63;5074297;28;20632;-73
2023/12/15 01:50:12;;;;;;;0.60;0.60;;;;;;;9.07;92.26;99355.84;5073992;28;20734;-71
2023/12/15 01:52:39;;;;;;;0.70;0.70;;;;;;;9.11;92.88;99362.41;5074262;28;20195;-71
2023/12/15 01:55:06;;;;;;;0.80;0.80;;;;;;;9.14;92.28;99362.84;5073807;28;20191;-71
2023/12/15 01:57:34;;;;;;;0.80;0.80;;;;;;;9.05;92.97;99373.75;5074304;28;20195;-72
2023/12/15 02:00:06;;;;;;;0.63;0.63;;;;;;;9.03;93.41;99367.81;5074044;28;20199;-72
2023/12/15 02:02:33;;;;;;;0.63;0.60;;;;;;;8.96;93.38;99362.47;5074002;28;20597;-72
2023/12/15 02:05:01;;;;;;;1.03;0.80;;;;;;;9.03;93.78;99378.44;5074291;28;20195;-72
2023/12/15 02:07:28;;;;;;;0.73;0.73;;;;;;;9.05;93.14;99381.69;5074270;28;20196;-72
2023/12/15 02:09:55;;;;;;;0.80;0.80;;;;;;;9.07;93.60;99379.69;5074355;28;20249;-71
2023/12/15 02:12:22;;;;;;;1.00;0.57;;;;;;;9.04;93.70;99372.09;5073779;28;20196;-72
2023/12/15 02:14:49;;;;;;;0.73;0.73;;;;;;;9.05;93.89;99374.56;5073965;28;20204;-71
2023/12/15 02:17:16;;;;;;;2.00;0.93;;;;;;;9.00;94.20;99376.97;5073982;28;20269;-72
2023/12/15 02:19:43;;;;;;;0.60;0.60;;;;;;;8.98;94.10;99388.75;5073249;28;20192;-72
2023/12/15 02:22:11;;;;;;;0.77;0.77;;;;;;;8.94;94.64;99398.09;5072811;28;20253;-73
2023/12/15 02:24:40;;;;;;;0.80;0.80;;;;;;;8.88;95.08;99388.25;5074235;28;20227;-73
2023/12/15 02:27:06;;;;;;;0.90;0.90;;;;;;;8.86;95.09;99379.69;5074028;28;20376;-73
2023/12/15 02:29:34;;;;;;;0.87;0.87;;;;;;;8.97;94.46;99397.72;5074036;28;20203;-73
2023/12/15 02:32:01;;;;;;;0.80;0.80;;;;;;;9.00;95.04;99407.94;5073563;28;20235;-72
2023/12/15 02:34:27;;;;;;;0.90;0.90;;;;;;;9.03;94.60;99408.38;5074046;28;20264;-72
2023/12/15 02:36:54;;;;;;;0.80;0.80;;;;;;;9.03;94.38;99418.97;5073664;28;20200;-72
2023/12/15 02:39:21;;;;;;;0.73;0.73;;;;;;;9.02;95.10;99427.09;5073199;28;20241;-72
2023/12/15 02:41:49;;;;;;;1.00;1.00;;;;;;;8.87;95.49;99434.28;5073760;28;20191;-71
2023/12/15 02:44:16;;;;;;;0.73;0.73;;;;;;;9.00;94.83;99429.97;5073754;28;20224;-71
2023/12/15 02:46:42;;;;;;;0.63;0.63;;;;;;;8.95;94.73;99426.22;5073269;28;20202;-71
2023/12/15 02:49:09;;;;;;;0.83;0.80;;;;;;;8.96;95.14;99427.84;5073375;28;20195;-71
2023/12/15 02:51:36;;;;;;;0.80;0.80;;;;;;;8.95;94.59;99437.63;5073313;28;20257;-72
2023/12/15 02:54:04;;;;;;;0.70;0.70;;;;;;;8.95;94.43;99436.81;5073190;28;20204;-73
2023/12/15 02:56:31;;;;;;;0.87;0.87;;;;;;;8.97;94.22;99434.78;5073199;28;20192;-73
2023/12/15 02:58:59;;;;;;;1.20;0.90;;;;;;;8.91;94.89;99436.34;5073267;28;20253;-72
2023/12/15 03:01:26;;;;;;;0.60;0.60;;;;;;;8.86;94.95;99440.59;5073212;28;20200;-72
2023/12/15 03:03:53;;;;;;;0.70;0.70;;;;;;;8.91;94.86;99438.19;5073376;28;20256;-73
2023/12/15 03:06:19;;;;;;;0.83;0.83;;;;;;;8.92;94.72;99445.13;5072803;28;20192;-72
2023/12/15 03:08:46;;;;;;;1.43;1.20;;;;;;;8.92;94.00;99437.19;5073141;28;20245;-73
2023/12/15 03:11:13;;;;;;;0.73;0.73;;;;;;;8.93;93.80;99444.13;5073009;28;20196;-73
2023/12/15 03:13:40;;;;;;;0.80;0.80;;;;;;;8.93;94.03;99449.41;5073294;28;20203;-73
2023/12/15 03:16:11;;;;;;;0.77;0.77;;;;;;;8.89;94.06;99451.63;5072589;28;20598;-73
2023/12/15 03:18:38;;;;;;;0.70;0.70;;;;;;;8.97;94.29;99451.50;5072459;28;20580;-73
2023/12/15 03:21:05;;;;;;;0.90;0.90;;;;;;;8.91;94.02;99443.50;5072754;28;20261;-73
2023/12/15 03:23:31;;;;;;;0.70;0.70;;;;;;;8.99;94.52;99457.44;5072273;28;20220;-73
2023/12/15 03:25:58;;;;;;;0.80;0.80;;;;;;;8.93;94.71;99466.13;5072328;28;20203;-73
2023/12/15 03:28:25;;;;;;;1.20;1.20;;;;;;;8.90;94.55;99469.16;5072818;28;20204;-73
2023/12/15 03:30:52;;;;;;;1.07;1.07;;;;;;;8.78;94.31;99448.66;5072370;28;20684;-73
2023/12/15 03:33:20;;;;;;;1.47;1.43;;;;;;;8.86;95.45;99475.81;5071762;28;20191;-73
2023/12/15 03:35:46;;;;;;;0.90;0.90;;;;;;;8.85;96.98;99473.34;5072567;28;20250;-73
2023/12/15 03:38:14;;;;;;;1.00;1.00;;;;;;;8.91;96.94;99477.94;5072055;28;20630;-73
2023/12/15 03:40:40;;;;;;;0.93;0.93;;;;;;;8.79;98.09;99482.06;5072030;28;20191;-71
2023/12/15 03:43:07;;;;;;;1.23;1.20;;;;;;;8.74;99.05;99476.50;5072117;28;20631;-71
2023/12/15 03:45:34;;;;;;;0.80;0.80;;;;;;;8.78;99.24;99477.78;5072159;28;20245;-72
2023/12/15 03:48:01;;;;;;;1.20;1.20;;;;;;;8.73;100.00;99480.13;5072037;28;20265;-71
2023/12/15 03:50:29;;;;;;;2.03;1.03;;;;;;;8.74;100.00;99479.16;5071930;28;20199;-71
2023/12/15 03:52:56;;;;;;;1.53;1.20;;;;;;;8.69;100.00;99484.16;5072085;28;20191;-71
2023/12/15 03:55:23;;;;;;;1.30;1.30;;;;;;;8.66;100.00;99495.13;5071599;28;20742;-71
2023/12/15 03:57:49;;;;;;;2.80;1.17;;;;;;;8.59;100.00;99499.50;5070087;28;20192;-72
2023/12/15 04:00:16;;;;;;;1.83;1.10;;;;;;;8.55;100.00;99498.22;5071347;28;20658;-71
2023/12/15 04:02:43;;;;;;;1.10;1.10;;;;;;;8.55;100.00;99499.06;5071246;28;20192;-71
2023/12/15 04:05:10;;;;;;;1.40;1.30;;;;;;;8.47;100.00;99501.81;5071281;28;20223;-71
2023/12/15 04:07:38;;;;;;;1.80;1.70;;;;;;;8.47;100.00;99496.50;5070693;28;20195;-71
2023/12/15 04:10:06;;;;;;;1.80;1.63;;;;;;;8.48;100.00;99513.19;5071032;28;20192;-71
2023/12/15 04:12:33;;;;;;;1.30;1.30;;;;;;;8.41;100.00;99523.69;5071391;28;20257;-71
2023/12/15 04:14:59;;;;;;;1.77;1.67;;;;;;;8.38;100.00;99512.66;5071721;28;20199;-70
2023/12/15 04:17:26;;;;;;;1.30;1.30;;;;;;;8.34;100.00;99511.38;5070829;28;20621;-71
2023/12/15 04:19:53;;;;;;;1.50;1.50;;;;;;;8.42;100.00;99516.59;5071472;28;20584;-74
2023/12/15 04:22:22;;;;;;;1.40;1.40;;;;;;;8.40;100.00;99521.22;5070987;28;20549;-73
2023/12/15 04:24:50;;;;;;;1.60;1.50;;;;;;;8.41;100.00;99512.31;5071382;28;20360;-73
2023/12/15 04:27:16;;;;;;;1.20;1.20;;;;;;;8.46;100.00;99525.81;5070577;28;20622;-73
2023/12/15 04:29:43;;;;;;;1.73;1.63;;;;;;;8.44;100.00;99538.38;5071444;28;20196;-73
2023/12/15 04:32:12;;;;;;;1.10;1.10;;;;;;;8.46;100.00;99531.09;5070860;28;20306;-73
2023/12/15 04:34:39;;;;;;;1.67;1.20;;;;;;;8.50;100.00;99538.47;5071077;28;20196;-73
2023/12/15 04:37:06;;;;;;;2.37;2.17;;;;;;;8.50;100.00;99537.66;5070846;28;20257;-73
2023/12/15 04:39:33;;;;;;;1.80;1.40;;;;;;;8.42;100.00;99530.63;5071266;28;20192;-73
2023/12/15 04:42:01;;;;;;;1.73;1.43;;;;;;;8.44;100.00;99533.09;5070512;28;20196;-73
2023/12/15 04:44:27;;;;;;;1.73;1.63;;;;;;;8.37;100.00;99537.47;5070902;28;20286;-72
2023/12/15 04:46:55;;;;;;;1.47;1.40;;;;;;;8.19;100.00;99519.25;5070545;28;20192;-73
2023/12/15 04:49:22;;;;;;;1.30;1.20;;;;;;;8.21;100.00;99542.94;5069818;28;20195;-74
2023/12/15 04:51:49;;;;;;;1.50;1.40;;;;;;;8.23;100.00;99551.50;5070151;28;20662;-73
2023/12/15 04:54:16;;;;;;;1.40;1.40;;;;;;;8.13;100.00;99550.91;5070188;28;20256;-73
2023/12/15 04:56:44;;;;;;;1.40;1.40;;;;;;;8.15;100.00;99551.53;5070092;28;20257;-72
2023/12/15 04:59:12;;;;;;;1.50;1.40;;;;;;;8.11;100.00;99552.88;5070429;28;20192;-73
2023/12/15 05:01:38;;;;;;;1.53;1.43;;;;;;;8.15;100.00;99562.13;5070728;28;20194;-73
2023/12/15 05:04:05;;;;;;;1.70;1.60;;;;;;;8.16;100.00;99576.97;5070295;28;20291;-74
2023/12/15 05:06:32;;;;;;;1.40;1.40;;;;;;;8.17;100.00;99576.81;5070039;28;20194;-74
2023/12/15 05:08:59;;;;;;;1.50;1.50;;;;;;;8.13;100.00;99587.94;5070340;28;20230;-74
2023/12/15 05:11:26;;;;;;;1.40;1.30;;;;;;;8.14;100.00;99594.88;5069970;28;20626;-73
2023/12/15 05:13:52;;;;;;;1.30;1.30;;;;;;;8.15;100.00;99601.78;5070176;28;20596;-74
2023/12/15 05:16:21;;;;;;;1.30;1.30;;;;;;;8.15;100.00;99602.63;5070433;28;20196;-73
2023/12/15 05:18:48;;;;;;;1.67;1.57;;;;;;;8.24;100.00;99603.41;5069868;28;20655;-73
2023/12/15 05:21:14;;;;;;;2.40;2.23;;;;;;;8.18;100.00;99601.44;5070393;28;20191;-73
2023/12/15 05:23:41;;;;;;;1.83;1.50;;;;;;;8.20;100.00;99613.50;5070094;28;20253;-74
2023/12/15 05:26:08;;;;;;;1.43;1.43;;;;;;;8.20;100.00;99602.09;5070624;28;20259;-73
2023/12/15 05:28:35;;;;;;;1.60;1.50;;;;;;;8.17;100.00;99603.25;5070477;28;20253;-74
2023/12/15 05:31:01;;;;;;;2.10;1.43;;;;;;;8.07;100.00;99605.34;5069871;28;20284;-74
2023/12/15 05:33:29;;;;;;;1.60;1.50;;;;;;;8.07;100.00;99599.22;5070621;28;20273;-75
2023/12/15 05:35:56;;;;;;;1.60;1.50;;;;;;;8.10;100.00;99609.44;5070299;28;20273;-73
2023/12/15 05:38:23;;;;;;;1.90;1.80;;;;;;;8.17;100.00;99621.78;5070118;28;20214;-77
2023/12/15 05:40:52;;;;;;;1.90;1.67;;;;;;;8.11;100.00;99627.78;5070203;28;20196;-77
2023/12/15 05:43:19;;;;;;;1.83;1.63;;;;;;;8.04;100.00;99620.75;5059523;28;20207;-74
2023/12/15 05:45:45;;;;;;;1.63;1.57;;;;;;;8.14;100.00;99618.69;5049459;28;20220;-74
2023/12/15 05:48:12;;;;;;;2.10;2.00;;;;;;;8.19;100.00;99618.97;5061108;28;20195;-73
2023/12/15 05:50:40;;;;;;;3.13;2.27;;;;;;;8.18;100.00;99623.44;5070557;28;20192;-74
2023/12/15 05:53:07;;;;;;;2.17;2.07;;;;;;;8.17;100.00;99620.97;5089714;28;20573;-73
2023/12/15 05:55:33;;;;;;;1.60;1.50;;;;;;;8.20;100.00;99628.53;5070215;28;20254;-77
2023/12/15 05:58:00;;;;;;;2.00;1.90;;;;;;;8.27;100.00;99638.28;5067885;28;20253;-73
2023/12/15 06:00:27;;;;;;;2.10;2.00;;;;;;;8.21;100.00;99641.63;5067672;28;20556;-74
2023/12/15 06:02:54;;;;;;;2.43;2.23;;;;;;;8.07;100.00;99636.25;5079535;28;20198;-75
2023/12/15 06:05:21;;;;;;;2.10;2.00;;;;;;;8.19;100.00;99658.66;5068950;28;20642;-76
2023/12/15 06:07:49;;;;;;;2.90;2.80;;;;;;;8.26;100.00;99647.25;5078210;28;20195;-74
2023/12/15 06:10:15;;;;;;;5.53;5.10;;;;;;;8.30;100.00;99642.41;5088809;28;20191;-73
2023/12/15 06:12:42;;;;;;;8.93;8.23;;;;;;;8.35;100.00;99646.16;5089479;28;20194;-75
2023/12/15 06:15:10;;;;;;;4.13;3.93;;;;;;;8.22;100.00;99640.66;5076386;28;20257;-73
2023/12/15 06:17:37;;;;;;;3.03;2.93;;;;;;;8.26;100.00;99656.97;5069159;28;20196;-76
2023/12/15 06:20:07;;;;;;;3.10;2.80;;;;;;;8.25;100.00;99653.50;5060827;28;20188;-77
2023/12/15 06:22:33;;;;;;;2.37;2.27;;;;;;;8.28;100.00;99654.97;5072114;28;20278;-71
2023/12/15 06:25:01;;;;;;;2.20;1.80;;;;;;;8.39;100.00;99662.50;5073619;28;20223;-73
2023/12/15 06:27:31;;;;;;;2.03;1.40;;;;;;;8.28;100.00;99665.56;5081487;28;20280;-77
2023/12/15 06:29:58;;;;;;;4.63;1.70;;;;;;;8.26;100.00;99673.69;5092898;28;20191;-76
2023/12/15 06:32:25;;;;;;;2.97;2.47;;;;;;;8.24;100.00;99670.38;5093485;28;20259;-74
2023/12/15 06:34:51;;;;;;;1.90;1.80;;;;;;;8.08;100.00;99659.09;5092958;28;20203;-73
2023/12/15 06:37:18;;;;;;;3.93;2.10;;;;;;;8.18;100.00;99686.13;5078944;28;20273;-73
2023/12/15 06:39:45;;;;;;;3.17;2.97;;;;;;;8.19;100.00;99685.94;5072427;28;20610;-73
2023/12/15 06:42:14;;;;;;;3.77;3.43;;;;;;;8.25;100.00;99679.97;5072237;28;20196;-73
2023/12/15 06:44:40;;;;;;;5.40;5.07;;;;;;;8.31;100.00;99687.22;5072568;28;20600;-73
2023/12/15 06:47:07;;;;;;;7.63;6.93;;;;;;;8.36;100.00;99695.44;5075775;28;20202;-72
2023/12/15 06:49:34;;;;;;;14.43;10.73;;;;;;;8.40;100.00;99695.91;5088025;28;20736;-75
2023/12/15 06:52:02;;;;;;;18.73;13.03;;;;;;;8.51;100.00;99700.78;5079024;28;20663;-73
2023/12/15 06:54:28;;;;;;;17.33;13.73;;;;;;;8.51;100.00;99708.72;5079615;28;20199;-73
2023/12/15 06:56:55;;;;;;;21.53;14.73;;;;;;;8.49;100.00;99716.03;5069829;28;20249;-73
2023/12/15 06:59:24;;;;;;;10.83;9.83;;;;;;;8.48;100.00;99711.72;5076169;28;20203;-74
2023/12/15 07:01:50;;;;;;;7.83;7.23;;;;;;;8.51;100.00;99724.59;5072835;28;20284;-73
2023/12/15 07:04:17;;;;;;;8.17;7.50;;;;;;;8.56;100.00;99724.88;5082140;28;20199;-74
2023/12/15 07:06:44;;;;;;;8.10;7.50;;;;;;;8.59;100.00;99733.31;5074471;28;20245;-72
2023/12/15 07:09:11;;;;;;;7.17;6.43;;;;;;;8.60;100.00;99734.13;5071775;28;20854;-71
2023/12/15 07:11:39;;;;;;;10.73;9.67;;;;;;;8.55;100.00;99725.91;5071763;28;20628;-70
2023/12/15 07:14:06;;;;;;;8.10;7.43;;;;;;;8.57;100.00;99734.47;5072245;28;20224;-72
2023/12/15 07:16:34;;;;;;;11.10;10.10;;;;;;;8.55;100.00;99736.50;5072129;28;20745;-72
2023/12/15 07:19:01;;;;;;;10.87;9.97;;;;;;;8.56;100.00;99738.97;5072403;28;20564;-74
2023/12/15 07:21:27;;;;;;;10.07;9.10;;;;;;;8.53;100.00;99727.91;5071667;28;20261;-72
2023/12/15 07:23:55;;;;;;;12.20;8.43;;;;;;;8.54;100.00;99745.44;5071799;28;20203;-71
2023/12/15 07:26:21;;;;;;;8.77;8.07;;;;;;;8.56;100.00;99744.25;5071511;28;20726;-71
2023/12/15 07:28:48;;;;;;;15.90;14.23;;;;;;;8.59;100.00;99753.66;5071821;28;20344;-73
2023/12/15 07:31:15;;;;;;;11.93;10.73;;;;;;;8.50;100.00;99760.03;5072056;28;20250;-72
2023/12/15 07:33:43;;;;;;;8.17;7.50;;;;;;;8.43;100.00;99767.00;5070407;28;20253;-73
2023/12/15 07:36:11;;;;;;;8.50;7.70;;;;;;;8.40;100.00;99770.00;5077239;28;20201;-73
2023/12/15 07:38:38;;;;;;;5.93;5.53;;;;;;;8.42;100.00;99771.47;5071594;28;20188;-73
2023/12/15 07:41:06;;;;;;;7.03;6.50;;;;;;;8.44;100.00;99779.25;5071579;28;20278;-72
2023/12/15 07:43:33;;;;;;;4.63;4.43;;;;;;;8.50;100.00;99781.22;5071492;28;20280;-71
2023/12/15 07:45:59;;;;;;;5.43;5.13;;;;;;;8.48;100.00;99783.19;5071162;28;20223;-72
2023/12/15 07:48:26;;;;;;;6.97;6.37;;;;;;;8.51;100.00;99775.75;5071615;28;20622;-72
2023/12/15 07:50:55;;;;;;;7.73;6.93;;;;;;;8.47;100.00;99786.84;5069226;28;20650;-72
2023/12/15 07:53:22;;;;;;;6.87;6.27;;;;;;;8.55;100.00;99797.38;5071050;28;20199;-75
2023/12/15 07:55:48;;;;;;;7.30;6.70;;;;;;;8.56;100.00;99801.66;5071349;28;20501;-74
2023/12/15 07:58:15;;;;;;;8.03;7.27;;;;;;;8.51;100.00;99798.72;5071231;28;20192;-75
2023/12/15 08:00:42;;;;;;;10.30;9.40;;;;;;;8.50;100.00;99810.31;5071399;28;20695;-71
2023/12/15 08:03:09;;;;;;;10.13;9.33;;;;;;;8.50;100.00;99813.78;5070871;28;20199;-73
2023/12/15 08:05:36;;;;;;;11.23;10.30;;;;;;;8.54;100.00;99819.56;5070256;28;20679;-73
2023/12/15 08:08:05;;;;;;;8.83;8.23;;;;;;;8.51;100.00;99830.50;5072780;28;20677;-71
2023/12/15 08:10:34;;;;;;;7.20;6.73;;;;;;;8.49;100.00;99832.50;5070445;28;20192;-72
2023/12/15 08:13:01;;;;;;;8.67;7.87;;;;;;;8.48;100.00;99831.69;5070460;28;20287;-75
2023/12/15 08:15:27;;;;;;;10.60;9.13;;;;;;;8.48;100.00;99836.13;5071175;28;20632;-77
2023/12/15 08:17:54;;;;;;;8.23;7.43;;;;;;;8.46;100.00;99838.16;5070834;28;20196;-78
2023/12/15 08:20:21;;;;;;;7.80;6.63;;;;;;;8.42;100.00;99852.72;5063467;28;20208;-75
2023/12/15 08:22:48;;;;;;;6.83;6.20;;;;;;;8.32;100.00;99849.44;5065725;28;20227;-75
2023/12/15 08:25:16;;;;;;;9.10;6.87;;;;;;;8.32;100.00;99857.38;5081772;28;20706;-75
2023/12/15 08:27:43;;;;;;;11.40;8.37;;;;;;;8.31;100.00;99867.16;5062024;28;20196;-76
2023/12/15 08:30:10;;;;;;;11.47;8.07;;;;;;;8.30;100.00;99867.34;5069369;28;20199;-76
2023/12/15 08:32:38;;;;;;;7.90;6.60;;;;;;;8.30;100.00;99864.69;5069237;28;20684;-75
2023/12/15 08:35:05;;;;;;;6.67;6.07;;;;;;;8.33;100.00;99867.00;5070971;28;20203;-75
2023/12/15 08:37:32;;;;;;;7.40;5.70;;;;;;;8.31;100.00;99877.75;5069543;28;20192;-75
2023/12/15 08:39:59;;;;;;;6.80;6.30;;;;;;;8.30;100.00;99875.28;5070389;28;20196;-75
2023/12/15 08:42:27;;;;;;;6.17;5.67;;;;;;;8.30;100.00;99886.69;5070533;28;20261;-73
2023/12/15 08:44:53;;;;;;;8.50;7.07;;;;;;;8.30;100.00;99891.16;5070543;28;20212;-74
2023/12/15 08:47:20;;;;;;;13.23;9.03;;;;;;;8.28;100.00;99887.84;5070866;28;20608;-74
2023/12/15 08:49:47;;;;;;;7.17;6.60;;;;;;;8.25;100.00;99896.16;5080381;28;20260;-75
2023/12/15 08:52:14;;;;;;;8.30;6.93;;;;;;;8.12;100.00;99898.44;5091185;28;20199;-74
2023/12/15 08:54:41;;;;;;;14.60;8.57;;;;;;;8.07;100.00;99900.78;5090783;28;20202;-72
2023/12/15 08:57:08;;;;;;;10.47;7.93;;;;;;;8.10;100.00;99903.09;5090652;28;20257;-74
2023/12/15 08:59:36;;;;;;;6.40;5.77;;;;;;;8.09;100.00;99901.47;5090732;28;20200;-74
2023/12/15 09:02:03;;;;;;;10.90;9.17;;;;;;;8.02;100.00;99911.91;5085718;28;20196;-73
2023/12/15 09:04:29;;;;;;;8.13;7.37;;;;;;;8.00;100.00;99913.88;5069717;28;20257;-75
2023/12/15 09:06:56;;;;;;;8.33;7.53;;;;;;;7.99;100.00;99906.09;5071053;28;20277;-74
2023/12/15 09:09:24;;;;;;;5.67;5.27;;;;;;;7.97;100.00;99900.16;5069557;28;20245;-72
2023/12/15 09:11:51;;;;;;;7.33;5.10;;;;;;;7.89;100.00;99905.47;5069607;28;20218;-76
2023/12/15 09:14:21;;;;;;;5.30;5.00;;;;;;;7.78;100.00;99901.38;5069687;28;20679;-75
2023/12/15 09:16:49;;;;;;;6.40;6.00;;;;;;;7.85;100.00;99912.09;5062165;28;20639;-73
2023/12/15 09:19:16;;;;;;;5.27;4.87;;;;;;;7.89;100.00;99914.25;5069471;28;20195;-75
2023/12/15 09:21:42;;;;;;;5.50;5.20;;;;;;;7.68;100.00;99905.19;5062293;28;20196;-74
2023/12/15 09:24:09;;;;;;;5.63;5.13;;;;;;;7.70;100.00;99909.31;5067608;28;20281;-74
2023/12/15 09:26:38;;;;;;;6.37;5.83;;;;;;;7.62;100.00;99911.13;5068424;28;20211;-74
2023/12/15 09:29:05;;;;;;;5.90;5.50;;;;;;;7.61;100.00;99912.13;5067179;28;20275;-75
2023/12/15 09:31:32;;;;;;;6.10;5.70;;;;;;;7.61;100.00;99906.84;5065657;28;20285;-74
2023/12/15 09:34:00;;;;;;;5.60;5.30;;;;;;;7.63;100.00;99915.44;5064338;28;20249;-75
2023/12/15 09:36:26;;;;;;;5.47;5.07;;;;;;;7.60;100.00;99918.41;5066272;28;20281;-75
2023/12/15 09:38:53;;;;;;;7.27;5.83;;;;;;;7.60;100.00;99918.41;5065381;28;20257;-72
2023/12/15 09:41:20;;;;;;;5.50;5.07;;;;;;;7.62;100.00;99911.13;5060435;28;20279;-72
2023/12/15 09:43:47;;;;;;;5.27;4.87;;;;;;;7.55;100.00;99912.81;5065086;28;20600;-75
2023/12/15 09:46:14;;;;;;;5.23;4.13;;;;;;;7.50;100.00;99908.00;5063334;28;20231;-72
2023/12/15 09:48:41;;;;;;;7.67;5.40;;;;;;;7.55;100.00;99916.25;5062917;28;20202;-72
2023/12/15 09:51:14;;;;;;;6.50;5.90;;;;;;;7.63;100.00;99918.91;5064032;28;20257;-70
2023/12/15 09:53:45;;;;;;;5.33;4.93;;;;;;;7.55;100.00;99920.75;5064656;28;20188;-73
2023/12/15 09:56:13;;;;;;;4.83;4.50;;;;;;;7.48;100.00;99930.31;5060782;28;20725;-73
2023/12/15 09:58:39;;;;;;;5.67;5.27;;;;;;;7.45;100.00;99922.72;5065261;28;20198;-75
2023/12/15 10:01:06;;;;;;;7.37;6.77;;;;;;;7.37;100.00;99928.00;5075756;28;20200;-74
2023/12/15 10:03:33;;;;;;;5.90;5.37;;;;;;;7.29;100.00;99915.63;5069571;28;20210;-73
2023/12/15 10:06:00;;;;;;;6.00;5.60;;;;;;;7.34;100.00;99929.16;5069792;28;20306;-75
2023/12/15 10:08:40;;;;;;;5.30;5.00;;;;;;;7.33;100.00;99938.06;5071594;28;20196;-75
2023/12/15 10:11:07;;;;;;;4.90;4.50;;;;;;;7.38;100.00;99940.19;5071448;28;20245;-75
2023/12/15 10:13:34;;;;;;;5.60;5.20;;;;;;;7.39;100.00;99939.25;5072505;28;20196;-80
2023/12/15 10:16:00;;;;;;;4.87;4.57;;;;;;;7.28;100.00;99944.84;5072689;28;20197;-79
2023/12/15 10:18:27;;;;;;;6.43;5.80;;;;;;;7.34;100.00;99949.44;5072375;28;20193;-79
2023/12/15 10:20:55;;;;;;;4.77;4.47;;;;;;;7.19;100.00;99940.53;5073116;28;20689;-78
2023/12/15 10:23:28;;;;;;;8.83;7.93;;;;;;;7.23;100.00;99949.78;5072773;28;20282;-81
2023/12/15 10:25:55;;;;;;;4.10;3.80;;;;;;;7.15;100.00;99957.72;5073182;28;20277;-81
2023/12/15 10:28:22;;;;;;;5.20;4.83;;;;;;;7.19;100.00;99956.41;5073248;28;20590;-78
2023/12/15 10:30:51;;;;;;;4.67;4.27;;;;;;;7.22;100.00;99958.72;5073239;28;20605;-79
2023/12/15 10:33:18;;;;;;;4.30;4.00;;;;;;;7.22;100.00;99958.72;5071798;28;20283;-81
2023/12/15 10:35:47;;;;;;;3.77;3.57;;;;;;;7.24;100.00;99967.28;5070931;28;20637;-76
2023/12/15 10:38:14;;;;;;;3.67;3.47;;;;;;;7.22;100.00;99958.72;5069013;28;20196;-78
2023/12/15 10:40:43;;;;;;;5.70;5.30;;;;;;;7.25;100.00;99976.84;5071014;28;20207;-75
2023/12/15 10:43:11;;;;;;;7.43;6.60;;;;;;;7.23;100.00;99981.50;5069064;28;20251;-77
2023/12/15 10:45:38;;;;;;;9.23;8.00;;;;;;;7.22;100.00;99982.50;5072567;28;20199;-78
2023/12/15 10:48:06;;;;;;;9.57;8.57;;;;;;;7.07;100.00;99984.09;5072600;28;20184;-75
2023/12/15 10:50:35;;;;;;;9.30;8.40;;;;;;;6.94;100.00;99987.19;5072301;28;20204;-78
2023/12/15 10:53:03;;;;;;;5.20;4.90;;;;;;;7.00;100.00;99988.38;5070261;28;20675;-79
2023/12/15 10:55:30;;;;;;;3.83;3.63;;;;;;;6.88;100.00;100000.22;5071486;28;20204;-79
2023/12/15 10:58:00;;;;;;;4.07;3.77;;;;;;;6.79;100.00;99995.91;5073430;28;20211;-77
2023/12/15 11:00:27;;;;;;;4.47;4.07;;;;;;;6.79;100.00;99995.91;5073518;28;20353;-78
2023/12/15 11:02:55;;;;;;;4.00;3.70;;;;;;;6.69;100.00;100000.50;5072411;28;20197;-81
2023/12/15 11:05:22;;;;;;;4.60;4.30;;;;;;;6.71;100.00;99995.88;5050023;28;20211;-79
2023/12/15 11:07:50;;;;;;;3.77;3.47;;;;;;;6.63;100.00;99988.75;5053026;28;20228;-77
2023/12/15 11:10:17;;;;;;;3.43;3.23;;;;;;;6.65;100.00;99993.88;5071270;28;20588;-79
2023/12/15 11:12:44;;;;;;;4.07;3.80;;;;;;;6.55;100.00;100003.72;5070766;28;20255;-81
2023/12/15 11:15:14;;;;;;;3.20;3.00;;;;;;;6.49;100.00;100002.53;5071551;28;20210;-75
2023/12/15 11:17:42;;;;;;;3.53;3.33;;;;;;;6.50;100.00;100006.00;5070890;28;20193;-76
2023/12/15 11:20:34;;;;;;;4.37;3.97;;;;;;;6.50;100.00;100009.47;5071332;28;20293;-79
2023/12/15 11:23:06;;;;;;;8.00;5.70;;;;;;;6.46;100.00;99999.38;5070857;28;20748;-77
2023/12/15 11:25:36;;;;;;;5.40;4.90;;;;;;;6.52;100.00;99998.75;5071468;28;20195;-78
2023/12/15 11:28:08;;;;;;;4.57;4.20;;;;;;;6.55;100.00;100009.00;5071052;28;20192;-79
2023/12/15 11:30:39;;;;;;;3.70;3.37;;;;;;;6.50;100.00;100013.91;5070616;28;20247;-81
2023/12/15 11:33:43;;;;;;;3.50;3.30;;;;;;;6.51;100.00;100013.75;5070139;28;20300;-80
2023/12/15 11:36:13;;;;;;;2.90;2.70;;;;;;;6.40;100.00;100010.59;5070859;28;20203;-80